Hammond Crossroads, South Carolina
Current Conditions -  °F | °C
As of 11:58 AM on Thursday 23 Oct 2014 (Local Time) from KMMT Reporting Station
Clear Clear  
Wind Chill: 64°   Ceiling: Unl
Heat Index: 64°   Visibility: 10mi
Dew Point: 41°   Wind: 0mph
Humidity: 43%   Direction: NA
Pressure: 30.08"   Gusts: NA
Location:  33.7122°N, 80.8747°W
Report Text: KMMT 231558Z 00000KT 10SM CLR 18/05 A3008 RMK AO2A SLP188 T01790050
Loading
Personal Weather Stations






























Interactive Weather Map
Tropical Storm Tracking
New forecast layout! Learn more

10-Day Weather Forecast

Advertisements
Track Severe Weather on mobile